createdAt,value
2019-04-11T00:00:39.721Z,100.00
2019-04-11T00:03:27.877Z,100.00
2019-04-11T00:06:17.201Z,100.00
2019-04-11T00:09:08.341Z,100.00
2019-04-11T00:11:56.026Z,100.00
2019-04-11T00:14:44.175Z,100.00
2019-04-11T00:17:34.201Z,100.00
2019-04-11T00:20:22.482Z,100.00
2019-04-11T00:23:10.440Z,100.00
2019-04-11T00:25:59.979Z,100.00
2019-04-11T00:28:50.074Z,100.00
2019-04-11T00:31:39.094Z,100.00
2019-04-11T00:34:27.427Z,100.00
2019-04-11T00:37:16.886Z,100.00
2019-04-11T00:40:05.924Z,100.00
2019-04-11T00:42:54.736Z,100.00
2019-04-11T00:45:43.486Z,100.00
2019-04-11T00:48:32.056Z,100.00
2019-04-11T00:51:20.328Z,100.00
2019-04-11T00:54:08.812Z,100.00
2019-04-11T00:56:57.014Z,100.00
2019-04-11T00:59:45.118Z,100.00
2019-04-11T01:02:33.662Z,100.00
2019-04-11T01:05:22.087Z,100.00
2019-04-11T01:08:11.499Z,100.00
2019-04-11T01:10:59.860Z,100.00
2019-04-11T01:13:52.425Z,100.00
2019-04-11T01:17:03.221Z,100.00
2019-04-11T01:19:51.565Z,100.00
2019-04-11T01:22:42.895Z,100.00
2019-04-11T01:25:32.605Z,100.00
2019-04-11T01:28:20.884Z,100.00
2019-04-11T01:31:11.570Z,100.00
2019-04-11T01:34:00.246Z,100.00
2019-04-11T01:36:48.367Z,100.00
2019-04-11T01:40:13.796Z,100.00
2019-04-11T01:43:01.968Z,100.00
2019-04-11T01:45:49.739Z,100.00
2019-04-11T01:49:00.021Z,100.00
2019-04-11T01:51:47.927Z,100.00
2019-04-11T01:54:35.702Z,100.00
2019-04-11T01:57:24.120Z,100.00
2019-04-11T02:00:19.678Z,100.00
2019-04-11T02:03:09.288Z,100.00
2019-04-11T02:05:57.282Z,100.00
2019-04-11T02:08:45.377Z,100.00
2019-04-11T02:11:34.029Z,100.00
2019-04-11T02:14:22.597Z,100.00
2019-04-11T02:17:12.526Z,100.00
2019-04-11T02:20:00.709Z,100.00
2019-04-11T02:22:56.973Z,100.00
2019-04-11T02:26:03.688Z,100.00
2019-04-11T02:28:52.958Z,100.00
2019-04-11T02:31:42.421Z,100.00
2019-04-11T02:34:31.539Z,100.00
2019-04-11T02:37:20.309Z,100.00
2019-04-11T02:40:09.291Z,100.00
2019-04-11T02:42:59.391Z,100.00
2019-04-11T02:46:00.147Z,100.00
2019-04-11T02:48:37.717Z,100.00
2019-04-11T02:51:27.012Z,100.00
2019-04-11T02:54:15.908Z,100.00
2019-04-11T02:57:05.741Z,100.00
2019-04-11T02:59:56.054Z,100.00
2019-04-11T03:02:44.493Z,100.00
2019-04-11T03:05:35.200Z,100.00
2019-04-11T03:08:24.219Z,100.00
2019-04-11T03:11:11.972Z,100.00
2019-04-11T03:14:03.268Z,100.00
2019-04-11T03:17:02.496Z,100.00
2019-04-11T03:19:53.660Z,100.00
2019-04-11T03:22:32.170Z,100.00
2019-04-11T03:25:22.550Z,100.00
2019-04-11T03:28:14.763Z,100.00
2019-04-11T03:31:38.215Z,100.00
2019-04-11T03:39:52.097Z,100.00
2019-04-11T03:42:35.363Z,100.00
2019-04-11T03:45:34.362Z,100.00
2019-04-11T03:48:12.511Z,100.00
2019-04-11T03:50:49.030Z,100.00
2019-04-11T03:53:37.346Z,100.00
2019-04-11T03:56:26.622Z,100.00
2019-04-11T03:59:16.567Z,100.00
2019-04-11T04:02:05.815Z,100.00
2019-04-11T04:04:54.709Z,100.00
2019-04-11T04:07:44.366Z,100.00
2019-04-11T04:10:36.152Z,100.00
2019-04-11T04:13:27.710Z,100.00
2019-04-11T04:16:31.001Z,100.00
2019-04-11T04:19:37.672Z,100.00
2019-04-11T04:22:35.639Z,100.00
2019-04-11T04:25:24.355Z,100.00
2019-04-11T04:28:14.250Z,100.00
2019-04-11T04:31:02.203Z,100.00
2019-04-11T04:33:51.401Z,100.00
2019-04-11T04:36:40.333Z,100.00
2019-04-11T04:39:29.911Z,100.00
2019-04-11T04:42:26.330Z,100.00
2019-04-11T04:45:10.140Z,100.00
2019-04-11T04:48:03.492Z,100.00
2019-04-11T04:50:48.922Z,100.00
2019-04-11T04:53:36.920Z,100.00
2019-04-11T04:56:29.522Z,100.00
2019-04-11T04:59:16.293Z,100.00
2019-04-11T05:02:06.234Z,100.00
2019-04-11T05:04:54.303Z,100.00
2019-04-11T05:07:46.031Z,100.00
2019-04-11T05:10:32.763Z,100.00
2019-04-11T05:13:23.944Z,100.00
2019-04-11T05:16:17.149Z,100.00
2019-04-11T05:19:01.912Z,100.00
2019-04-11T05:21:49.985Z,100.00
2019-04-11T05:24:41.150Z,100.00
2019-04-11T05:27:29.551Z,100.00
2019-04-11T05:30:18.791Z,100.00
2019-04-11T05:33:07.446Z,100.00
2019-04-11T05:35:56.395Z,100.00
2019-04-11T05:38:44.650Z,100.00
2019-04-11T05:41:33.557Z,100.00
2019-04-11T05:44:22.892Z,100.00
2019-04-11T05:47:14.526Z,100.00
2019-04-11T05:50:18.068Z,100.00
2019-04-11T05:53:05.811Z,100.00
2019-04-11T05:55:55.210Z,100.00
2019-04-11T05:58:47.002Z,100.00
2019-04-11T06:01:38.324Z,100.00
2019-04-11T06:04:40.481Z,100.00
2019-04-11T06:07:41.005Z,100.00
2019-04-11T06:10:33.828Z,100.00
2019-04-11T06:13:29.720Z,100.00
2019-04-11T06:16:18.743Z,100.00
2019-04-11T06:19:24.951Z,100.00
2019-04-11T06:22:13.519Z,100.00
2019-04-11T06:25:28.254Z,100.00
2019-04-11T06:28:28.847Z,100.00
2019-04-11T06:31:34.903Z,100.00
2019-04-11T06:34:24.971Z,100.00
2019-04-11T06:37:25.583Z,100.00
2019-04-11T06:40:27.730Z,100.00
2019-04-11T06:43:32.131Z,100.00
2019-04-11T06:46:54.482Z,100.00
2019-04-11T06:49:56.812Z,100.00
2019-04-11T06:52:45.569Z,100.00
2019-04-11T06:55:55.300Z,100.00
2019-04-11T06:58:47.837Z,100.00
2019-04-11T07:01:36.385Z,100.00
2019-04-11T07:04:33.576Z,100.00
2019-04-11T07:07:26.149Z,100.00
2019-04-11T07:10:13.670Z,100.00
2019-04-11T07:13:07.678Z,100.00
2019-04-11T07:15:57.574Z,100.00
2019-04-11T07:19:07.291Z,100.00
2019-04-11T07:21:56.070Z,100.00
2019-04-11T07:25:06.041Z,100.00
2019-04-11T07:28:03.643Z,100.00
2019-04-11T07:31:10.433Z,100.00
2019-04-11T07:34:35.187Z,100.00
2019-04-11T07:37:36.690Z,100.00
2019-04-11T07:40:56.184Z,100.00
2019-04-11T07:43:44.852Z,100.00
2019-04-11T07:46:51.610Z,100.00
2019-04-11T07:49:40.911Z,100.00
2019-04-11T07:52:31.367Z,100.00
2019-04-11T07:55:21.568Z,98.34
2019-04-11T07:58:28.533Z,96.52
2019-04-11T08:01:42.542Z,98.05
2019-04-11T08:04:57.562Z,96.04
2019-04-11T08:08:13.551Z,95.02
2019-04-11T08:11:21.301Z,95.70
2019-04-11T08:14:34.828Z,95.80
2019-04-11T08:17:35.560Z,92.62
2019-04-11T08:20:33.273Z,93.64
2019-04-11T08:23:23.474Z,93.68
2019-04-11T08:26:28.663Z,90.79
2019-04-11T08:29:18.031Z,90.89
2019-04-11T08:32:25.453Z,90.34
2019-04-11T08:35:33.179Z,89.37
2019-04-11T08:38:28.790Z,88.78
2019-04-11T08:41:34.201Z,88.14
2019-04-11T08:44:27.918Z,88.88
2019-04-11T08:47:18.387Z,87.87
2019-04-11T08:50:06.981Z,89.29
2019-04-11T08:53:14.064Z,89.42
2019-04-11T08:56:03.834Z,87.25
2019-04-11T08:59:46.131Z,85.60
2019-04-11T09:02:49.128Z,83.13
2019-04-11T09:06:08.549Z,85.89
2019-04-11T09:09:15.312Z,84.05
2019-04-11T09:12:06.444Z,84.33
2019-04-11T09:15:12.710Z,82.49
2019-04-11T09:18:09.223Z,83.47
2019-04-11T09:21:12.361Z,83.87
2019-04-11T09:24:01.938Z,84.94
2019-04-11T09:27:08.678Z,81.54
2019-04-11T09:29:59.899Z,81.88
2019-04-11T09:33:02.639Z,82.43
2019-04-11T09:35:52.259Z,81.28
2019-04-11T09:38:42.295Z,77.79
2019-04-11T09:41:50.335Z,76.55
2019-04-11T09:44:53.167Z,75.54
2019-04-11T09:48:09.401Z,77.52
2019-04-11T09:51:01.027Z,74.46
2019-04-11T09:53:54.922Z,75.08
2019-04-11T09:57:02.338Z,75.47
2019-04-11T10:00:22.492Z,75.16
2019-04-11T10:03:20.900Z,73.95
2019-04-11T10:06:36.876Z,74.01
2019-04-11T10:09:30.373Z,75.33
2019-04-11T10:12:56.215Z,74.59
2019-04-11T10:16:05.783Z,70.96
2019-04-11T10:19:05.571Z,72.09
2019-04-11T10:22:13.013Z,72.01
2019-04-11T10:25:23.640Z,70.36
2019-04-11T10:28:30.927Z,71.73
2019-04-11T10:31:20.688Z,71.77
2019-04-11T10:34:33.574Z,71.08
2019-04-11T10:37:21.932Z,71.49
2019-04-11T10:40:30.171Z,70.83
2019-04-11T10:43:18.772Z,71.71
2019-04-11T10:46:19.623Z,71.26
2019-04-11T10:49:28.348Z,70.08
2019-04-11T10:52:34.882Z,68.86
2019-04-11T10:55:27.792Z,69.80
2019-04-11T10:58:31.038Z,67.79
2019-04-11T11:01:50.888Z,71.87
2019-04-11T11:04:51.096Z,71.64
2019-04-11T11:07:41.203Z,70.37
2019-04-11T11:10:31.274Z,70.65
2019-04-11T11:13:56.849Z,69.20
2019-04-11T11:16:50.831Z,69.89
2019-04-11T11:20:20.829Z,68.92
2019-04-11T11:23:28.993Z,70.11
2019-04-11T11:26:27.939Z,66.92
2019-04-11T11:29:47.517Z,66.11
2019-04-11T11:32:39.008Z,66.02
2019-04-11T11:35:47.845Z,65.49
2019-04-11T11:38:35.832Z,65.55
2019-04-11T11:41:42.711Z,65.31
2019-04-11T11:44:37.316Z,64.46
2019-04-11T11:47:43.283Z,64.27
2019-04-11T11:50:33.504Z,65.22
2019-04-11T11:53:26.921Z,64.33
2019-04-11T11:56:15.850Z,63.45
2019-04-11T11:59:20.980Z,63.94
2019-04-11T12:02:15.761Z,66.69
2019-04-11T12:05:15.833Z,65.39
2019-04-11T12:08:24.613Z,64.17
2019-04-11T12:11:13.669Z,64.76
2019-04-11T12:14:33.051Z,65.09
2019-04-11T12:17:26.896Z,65.14
2019-04-11T12:20:27.155Z,65.32
2019-04-11T12:22:59.004Z,62.86
2019-04-11T12:25:34.078Z,62.24
2019-04-11T12:28:27.685Z,63.08
2019-04-11T12:31:03.725Z,61.46
2019-04-11T12:33:50.525Z,62.64
2019-04-11T12:36:23.464Z,60.64
2019-04-11T12:39:24.288Z,60.83
2019-04-11T12:42:00.823Z,61.45
2019-04-11T12:44:49.471Z,60.68
2019-04-11T12:47:45.012Z,59.67
2019-04-11T12:50:40.134Z,59.78
2019-04-11T12:53:12.054Z,59.88
2019-04-11T12:55:59.300Z,60.11
2019-04-11T12:58:32.390Z,58.14
2019-04-11T13:01:21.043Z,60.73
2019-04-11T13:04:09.721Z,61.14
2019-04-11T13:06:58.358Z,60.53
2019-04-11T13:09:50.168Z,60.31
2019-04-11T13:12:44.703Z,61.33
2019-04-11T13:15:31.961Z,59.67
2019-04-11T13:18:20.720Z,58.80
2019-04-11T13:20:57.738Z,58.48
2019-04-11T13:23:37.008Z,58.76
2019-04-11T13:26:38.392Z,58.33
2019-04-11T13:29:36.283Z,58.13
2019-04-11T13:32:25.341Z,57.66
2019-04-11T13:34:58.221Z,56.20
2019-04-11T13:37:45.835Z,58.41
2019-04-11T13:40:37.545Z,58.20
2019-04-11T13:43:32.596Z,60.14
2019-04-11T13:46:36.583Z,61.87
2019-04-11T13:49:25.396Z,62.34
2019-04-11T13:52:24.859Z,62.87
2019-04-11T13:55:00.965Z,62.14
2019-04-11T13:57:55.566Z,61.23
2019-04-11T14:00:46.313Z,59.93
2019-04-11T14:03:43.984Z,57.62
2019-04-11T14:06:39.448Z,59.88
2019-04-11T14:09:37.818Z,62.38
2019-04-11T14:12:11.615Z,63.57
2019-04-11T14:14:46.840Z,61.66
2019-04-11T14:17:35.594Z,59.40
2019-04-11T14:20:29.572Z,55.13
2019-04-11T14:23:17.323Z,51.14
2019-04-11T14:26:05.975Z,51.74
2019-04-11T14:28:42.381Z,49.33
2019-04-11T14:31:29.783Z,50.24
2019-04-11T14:34:05.511Z,52.28
2019-04-11T14:37:03.957Z,50.11
2019-04-11T14:39:36.614Z,47.68
2019-04-11T14:42:25.295Z,48.10
2019-04-11T14:44:55.219Z,44.54
2019-04-11T14:47:42.146Z,42.94
2019-04-11T14:50:12.576Z,43.36
2019-04-11T14:53:00.957Z,45.96
2019-04-11T14:55:31.011Z,52.37
2019-04-11T14:58:23.773Z,52.71
2019-04-11T15:00:54.457Z,53.80
2019-04-11T15:03:52.332Z,55.52
2019-04-11T15:06:32.423Z,58.77
2019-04-11T15:09:29.953Z,59.14
2019-04-11T15:12:03.290Z,60.04
2019-04-11T15:14:51.908Z,59.46
2019-04-11T15:17:27.998Z,59.39
2019-04-11T15:20:19.415Z,61.01
2019-04-11T15:23:02.396Z,62.06
2019-04-11T15:25:38.467Z,62.24
2019-04-11T15:28:43.916Z,61.65
2019-04-11T15:31:39.322Z,62.84
2019-04-11T15:34:20.565Z,62.08
2019-04-11T15:37:15.137Z,62.02
2019-04-11T15:40:06.847Z,62.38
2019-04-11T15:43:11.615Z,62.62
2019-04-11T15:45:47.309Z,62.50
2019-04-11T15:48:34.810Z,62.60
2019-04-11T15:51:22.139Z,62.95
2019-04-11T15:54:10.534Z,64.32
2019-04-11T15:56:59.250Z,63.83
2019-04-11T15:59:57.130Z,63.84
2019-04-11T16:02:44.955Z,63.35
2019-04-11T16:05:48.452Z,61.69
2019-04-11T16:08:45.963Z,62.01
2019-04-11T16:11:52.765Z,61.72
2019-04-11T16:14:37.545Z,63.66
2019-04-11T16:17:19.813Z,65.93
2019-04-11T16:20:06.987Z,66.47
2019-04-11T16:22:55.468Z,67.08
2019-04-11T16:25:28.949Z,67.19
2019-04-11T16:28:21.570Z,68.08
2019-04-11T16:30:53.123Z,65.82
2019-04-11T16:33:40.333Z,67.88
2019-04-11T16:36:27.242Z,67.44
2019-04-11T16:39:19.500Z,66.83
2019-04-11T16:42:01.611Z,66.61
2019-04-11T16:44:59.264Z,67.68
2019-04-11T16:47:41.580Z,70.55
2019-04-11T16:50:11.327Z,72.12
2019-04-11T16:52:41.699Z,74.21
2019-04-11T16:55:11.637Z,74.65
2019-04-11T16:57:43.856Z,77.03
2019-04-11T17:00:12.945Z,71.25
2019-04-11T17:02:42.737Z,73.45
2019-04-11T17:05:12.570Z,76.66
2019-04-11T17:08:00.404Z,79.34
2019-04-11T17:11:04.756Z,82.02
2019-04-11T17:13:34.605Z,84.78
2019-04-11T17:16:06.101Z,87.07
2019-04-11T17:18:35.845Z,86.82
2019-04-11T17:21:07.854Z,85.24
2019-04-11T17:23:40.239Z,85.61
2019-04-11T17:26:10.031Z,85.99
2019-04-11T17:28:39.768Z,86.70
2019-04-11T17:31:09.609Z,90.82
2019-04-11T17:33:39.460Z,93.37
2019-04-11T17:36:09.513Z,95.83
2019-04-11T17:38:39.253Z,96.10
2019-04-11T17:41:11.786Z,95.76
2019-04-11T17:43:42.191Z,97.19
2019-04-11T17:46:13.412Z,97.39
2019-04-11T17:48:43.163Z,99.76
2019-04-11T17:51:12.913Z,100.00
2019-04-11T17:53:42.853Z,100.00
2019-04-11T17:56:12.607Z,99.15
2019-04-11T17:58:42.359Z,97.08
2019-04-11T18:01:12.235Z,97.34
2019-04-11T18:03:42.622Z,97.00
2019-04-11T18:06:16.879Z,98.46
2019-04-11T18:08:46.623Z,98.07
2019-04-11T18:11:16.464Z,99.38
2019-04-11T18:13:46.291Z,100.00
2019-04-11T18:16:16.032Z,100.00
2019-04-11T18:18:48.439Z,100.00
2019-04-11T18:21:18.623Z,100.00
2019-04-11T18:23:50.071Z,100.00
2019-04-11T18:26:21.517Z,100.00
2019-04-11T18:28:52.753Z,100.00
2019-04-11T18:31:24.759Z,100.00
2019-04-11T18:33:53.890Z,100.00
2019-04-11T18:36:31.985Z,100.00
2019-04-11T18:39:05.823Z,100.00
2019-04-11T18:41:33.568Z,100.00
2019-04-11T18:44:03.323Z,100.00
2019-04-11T18:46:33.143Z,100.00
2019-04-11T18:49:08.619Z,100.00
2019-04-11T18:51:38.405Z,100.00
2019-04-11T18:54:08.248Z,100.00
2019-04-11T18:56:38.345Z,100.00
2019-04-11T18:59:08.334Z,100.00
2019-04-11T19:01:39.828Z,100.00
2019-04-11T19:04:11.748Z,100.00
2019-04-11T19:06:43.001Z,100.00
2019-04-11T19:09:14.756Z,100.00
2019-04-11T19:11:46.254Z,100.00
2019-04-11T19:14:16.734Z,100.00
2019-04-11T19:16:46.868Z,100.00
2019-04-11T19:19:18.389Z,100.00
2019-04-11T19:21:51.679Z,100.00
2019-04-11T19:24:21.650Z,100.00
2019-04-11T19:26:51.401Z,100.00
2019-04-11T19:29:24.781Z,100.00
2019-04-11T19:31:52.593Z,100.00
2019-04-11T19:34:23.911Z,100.00
2019-04-11T19:36:53.956Z,100.00
2019-04-11T19:39:23.880Z,100.00
2019-04-11T19:41:53.659Z,100.00
2019-04-11T19:44:23.720Z,100.00
2019-04-11T19:46:53.937Z,100.00
2019-04-11T19:49:23.750Z,100.00
2019-04-11T19:51:53.484Z,100.00
2019-04-11T19:54:23.406Z,100.00
2019-04-11T19:57:05.024Z,100.00
2019-04-11T19:59:52.903Z,100.00
2019-04-11T20:02:41.341Z,100.00
2019-04-11T20:05:30.371Z,100.00
2019-04-11T20:08:18.588Z,100.00
2019-04-11T20:11:06.473Z,100.00
2019-04-11T20:13:55.168Z,100.00
2019-04-11T20:16:47.619Z,100.00
2019-04-11T20:19:32.291Z,100.00
2019-04-11T20:22:20.907Z,100.00
2019-04-11T20:25:09.009Z,100.00
2019-04-11T20:27:57.629Z,100.00
2019-04-11T20:30:46.315Z,100.00
2019-04-11T20:33:34.862Z,100.00
2019-04-11T20:36:32.929Z,100.00
2019-04-11T20:39:15.013Z,100.00
2019-04-11T20:42:01.919Z,100.00
2019-04-11T20:44:50.322Z,100.00
2019-04-11T20:47:38.545Z,100.00
2019-04-11T20:50:29.755Z,100.00
2019-04-11T20:53:17.747Z,100.00
2019-04-11T20:56:09.564Z,100.00
2019-04-11T20:58:39.624Z,100.00
2019-04-11T21:01:08.679Z,100.00
2019-04-11T21:03:38.459Z,100.00
2019-04-11T21:06:08.222Z,100.00
2019-04-11T21:08:37.959Z,100.00
2019-04-11T21:11:07.804Z,100.00
2019-04-11T21:13:38.365Z,100.00
2019-04-11T21:16:07.950Z,100.00
2019-04-11T21:18:37.927Z,100.00
2019-04-11T21:21:07.772Z,100.00
2019-04-11T21:23:37.522Z,100.00
2019-04-11T21:26:08.070Z,100.00
2019-04-11T21:28:38.160Z,100.00
2019-04-11T21:31:08.134Z,100.00
2019-04-11T21:33:37.940Z,100.00
2019-04-11T21:36:08.188Z,100.00
2019-04-11T21:38:39.420Z,100.00
2019-04-11T21:41:09.178Z,100.00
2019-04-11T21:43:39.155Z,100.00
2019-04-11T21:46:11.055Z,100.00
2019-04-11T21:48:42.941Z,100.00
2019-04-11T21:51:13.701Z,100.00
2019-04-11T21:53:45.287Z,100.00
2019-04-11T21:56:15.942Z,100.00
2019-04-11T21:58:50.136Z,100.00
2019-04-11T22:01:27.002Z,100.00
2019-04-11T22:03:59.075Z,100.00
2019-04-11T22:06:30.500Z,100.00
2019-04-11T22:09:05.068Z,100.00
2019-04-11T22:11:34.912Z,100.00
2019-04-11T22:14:04.854Z,100.00
2019-04-11T22:16:34.587Z,100.00
2019-04-11T22:19:05.003Z,100.00
2019-04-11T22:21:34.742Z,100.00
2019-04-11T22:24:04.580Z,100.00
2019-04-11T22:26:34.383Z,100.00
2019-04-11T22:29:04.127Z,100.00
2019-04-11T22:31:33.873Z,100.00
2019-04-11T22:34:22.639Z,100.00
2019-04-11T22:36:52.392Z,100.00
2019-04-11T22:39:22.125Z,100.00
2019-04-11T22:41:51.894Z,100.00
2019-04-11T22:44:21.693Z,100.00
2019-04-11T22:46:51.391Z,100.00
2019-04-11T22:49:21.194Z,100.00
2019-04-11T22:51:50.983Z,100.00
2019-04-11T22:54:20.728Z,100.00
2019-04-11T22:56:50.605Z,100.00
2019-04-11T22:59:20.348Z,100.00
2019-04-11T23:01:50.805Z,100.00
2019-04-11T23:04:22.212Z,100.00
2019-04-11T23:06:52.034Z,100.00
2019-04-11T23:09:21.779Z,100.00
2019-04-11T23:11:51.606Z,100.00
2019-04-11T23:14:21.351Z,100.00
2019-04-11T23:16:52.088Z,100.00
2019-04-11T23:19:21.869Z,100.00
2019-04-11T23:21:51.611Z,100.00
2019-04-11T23:24:21.358Z,100.00
2019-04-11T23:26:51.635Z,100.00
2019-04-11T23:29:21.394Z,100.00
2019-04-11T23:31:51.312Z,100.00
2019-04-11T23:34:22.138Z,100.00
2019-04-11T23:36:52.648Z,100.00
2019-04-11T23:39:22.871Z,100.00
2019-04-11T23:41:53.526Z,100.00
2019-04-11T23:44:23.272Z,100.00
2019-04-11T23:46:53.022Z,100.00
2019-04-11T23:49:24.862Z,100.00
2019-04-11T23:51:55.868Z,100.00
2019-04-11T23:54:28.899Z,100.00
2019-04-11T23:57:00.501Z,100.00
2019-04-11T23:59:32.124Z,100.00
